AIRPORT_AIRPORT_METAR
METAR FOR DTTJ
ADDS - METARS form results

(1827 UTC 25 September 2021)
Data provider http://aviationweather.gov/metar/data/
 
METAR text: DTTJ 251800Z 11011KT CAVOK 30/22 Q1016 NOSIG
Conditions at: DTTJ (DJERBA MELLITA , TN) observed 1800 UTC 25 September 2021
Temperature: 30.0°C (86°F)
Dewpoint: 22.0°C (72°F) [RH = 62%]
Pressure (altimeter): 30.00 inches Hg (1016.0 mb)
Winds: from the ESE (110 degrees) at 13 MPH (11 knots; 5.7 m/s)
Visibility: 6 or more miles (10+ km)
Ceiling: ceiling and visibility are OK
Clouds: unknown
Weather: no significant weather observed at this time

METAR text: DTTJ 251730Z 10011KT CAVOK 30/22 Q1015 NOSIG
Conditions at: DTTJ (DJERBA MELLITA , TN) observed 1730 UTC 25 September 2021
Temperature: 30.0°C (86°F)
Dewpoint: 22.0°C (72°F) [RH = 62%]
Pressure (altimeter): 29.97 inches Hg (1015.0 mb)
Winds: from the E (100 degrees) at 13 MPH (11 knots; 5.7 m/s)
Visibility: 6 or more miles (10+ km)
Ceiling: ceiling and visibility are OK
Clouds: unknown
Weather: no significant weather observed at this time

Forecast for: DTTJ (DJERBA MELLITA , TN)
Text: TAF DTTJ 251700Z 2518/2618 09011KT 9999 SCT016
Forecast period: 1800 UTC 25 September 2021 to 1800 UTC 26 September 2021
Forecast type: FROM: standard forecast or significant change
Winds: from the E (90 degrees) at 13 MPH (11 knots; 5.7 m/s)
Visibility: 6 or more miles (10+ km)
Ceiling: at least 12,000 feet AGL
Clouds: scattered clouds at 1600 feet AGL
Weather: no significant weather forecast for this period

 AIRPORT_AIRPORT_MAP

 AIRPORT_RUNWAY_INFO
AIRPORT_RUNWAY 09 AIRPORT_RUNWAY_LENGTH 10171 ft AIRPORT_RUNWAY_WIDTH 148 ft
AIRPORT_RUNWAY_ELEVATION 9 ft AIRPORT_RUNWAY_THRESHOLD 0 ft AIRPORT_RUNWAY_HEADING 88
AIRPORT_RUNWAY 27 AIRPORT_RUNWAY_LENGTH 10171 ft AIRPORT_RUNWAY_WIDTH 148 ft
AIRPORT_RUNWAY_ELEVATION 18 ft AIRPORT_RUNWAY_THRESHOLD 0 ft AIRPORT_RUNWAY_HEADING 268

 AIRPORT_AIRPORT_FREQUENCIES
AIRPORT_AIRPORT_NAVAIDS_TYPE APP AIRPORT_AIRPORT_NAVAIDS_NAME DJERBA APP AIRPORT_AIRPORT_NAVAIDS_FREQ 120.3 MHZ
AIRPORT_AIRPORT_NAVAIDS_TYPE TWR AIRPORT_AIRPORT_NAVAIDS_NAME DJERBA TWR AIRPORT_AIRPORT_NAVAIDS_FREQ 118.15 MHZ

 AIRPORT_AIRPORT_NAVAIDS
AIRPORT_AIRPORT_NAVAIDS_TYPE VOR-DME AIRPORT_AIRPORT_NAVAIDS_NAME Djerba AIRPORT_AIRPORT_NAVAIDS_FREQ 112200 KHZ



Copyright © 2005-2021 - Virtuel Air Alsace - Tous droits réservés